sensor_id;sensor_type;location;lat;lon;timestamp;pressure;altitude;pressure_sealevel;temperature;humidity
72857;BME280;62742;52.136;4.500;2023-04-05T00:01:49;102650.13;;;2.96;85.76
72857;BME280;62742;52.136;4.500;2023-04-05T00:04:15;102644.81;;;2.93;86.30
72857;BME280;62742;52.136;4.500;2023-04-05T00:06:46;102638.66;;;2.91;86.37
72857;BME280;62742;52.136;4.500;2023-04-05T00:09:17;102630.78;;;2.89;86.64
72857;BME280;62742;52.136;4.500;2023-04-05T00:11:45;102635.91;;;2.88;86.33
72857;BME280;62742;52.136;4.500;2023-04-05T00:14:12;102634.28;;;2.90;86.88
72857;BME280;62742;52.136;4.500;2023-04-05T00:16:38;102629.47;;;2.79;87.24
72857;BME280;62742;52.136;4.500;2023-04-05T00:19:05;102634.75;;;2.81;87.86
72857;BME280;62742;52.136;4.500;2023-04-05T00:21:31;102631.28;;;2.80;87.38
72857;BME280;62742;52.136;4.500;2023-04-05T00:23:58;102627.75;;;2.80;87.20
72857;BME280;62742;52.136;4.500;2023-04-05T00:26:24;102630.19;;;2.75;86.41
72857;BME280;62742;52.136;4.500;2023-04-05T00:28:50;102625.31;;;2.64;86.74
72857;BME280;62742;52.136;4.500;2023-04-05T00:31:17;102629.47;;;2.60;86.65
72857;BME280;62742;52.136;4.500;2023-04-05T00:33:44;102632.34;;;2.66;87.36
72857;BME280;62742;52.136;4.500;2023-04-05T00:36:11;102630.34;;;2.60;87.05
72857;BME280;62742;52.136;4.500;2023-04-05T00:38:42;102629.53;;;2.61;87.55
72857;BME280;62742;52.136;4.500;2023-04-05T00:41:11;102625.00;;;2.57;87.31
72857;BME280;62742;52.136;4.500;2023-04-05T00:43:38;102622.50;;;2.59;87.04
72857;BME280;62742;52.136;4.500;2023-04-05T00:46:06;102617.84;;;2.52;86.91
72857;BME280;62742;52.136;4.500;2023-04-05T00:48:33;102616.19;;;2.54;88.42
72857;BME280;62742;52.136;4.500;2023-04-05T00:51:00;102620.44;;;2.52;87.72
72857;BME280;62742;52.136;4.500;2023-04-05T00:53:26;102615.41;;;2.55;86.45
72857;BME280;62742;52.136;4.500;2023-04-05T00:55:53;102621.06;;;2.46;87.24
72857;BME280;62742;52.136;4.500;2023-04-05T00:58:20;102612.75;;;2.35;87.50
72857;BME280;62742;52.136;4.500;2023-04-05T01:03:53;102602.19;;;2.31;87.83
72857;BME280;62742;52.136;4.500;2023-04-05T01:09:04;102605.53;;;2.48;87.13
72857;BME280;62742;52.136;4.500;2023-04-05T01:12:06;102601.34;;;2.32;86.51
72857;BME280;62742;52.136;4.500;2023-04-05T01:14:48;102589.63;;;2.22;87.51
72857;BME280;62742;52.136;4.500;2023-04-05T01:17:21;102596.63;;;2.23;87.61
72857;BME280;62742;52.136;4.500;2023-04-05T01:19:52;102598.09;;;2.18;88.13
72857;BME280;62742;52.136;4.500;2023-04-05T01:30:25;102600.19;;;2.07;88.38
72857;BME280;62742;52.136;4.500;2023-04-05T01:33:05;102587.00;;;2.02;87.92
72857;BME280;62742;52.136;4.500;2023-04-05T01:35:50;102592.19;;;2.02;87.78
72857;BME280;62742;52.136;4.500;2023-04-05T01:38:21;102585.91;;;1.97;88.77
72857;BME280;62742;52.136;4.500;2023-04-05T01:40:50;102579.59;;;1.92;88.99
72857;BME280;62742;52.136;4.500;2023-04-05T01:43:17;102586.44;;;1.90;88.94
72857;BME280;62742;52.136;4.500;2023-04-05T01:45:44;102582.28;;;1.94;88.98
72857;BME280;62742;52.136;4.500;2023-04-05T01:48:12;102577.69;;;1.88;88.45
72857;BME280;62742;52.136;4.500;2023-04-05T01:50:38;102572.63;;;1.91;87.81
72857;BME280;62742;52.136;4.500;2023-04-05T01:53:08;102569.28;;;2.12;85.44
72857;BME280;62742;52.136;4.500;2023-04-05T01:55:34;102561.69;;;1.97;85.38
72857;BME280;62742;52.136;4.500;2023-04-05T01:58:00;102570.56;;;1.84;86.38
72857;BME280;62742;52.136;4.500;2023-04-05T02:00:26;102556.50;;;1.79;87.23
72857;BME280;62742;52.136;4.500;2023-04-05T02:02:53;102556.81;;;1.85;86.08
72857;BME280;62742;52.136;4.500;2023-04-05T02:05:19;102561.06;;;1.84;85.53
72857;BME280;62742;52.136;4.500;2023-04-05T02:07:45;102546.38;;;1.83;85.45
72857;BME280;62742;52.136;4.500;2023-04-05T02:10:11;102545.09;;;1.93;83.93
72857;BME280;62742;52.136;4.500;2023-04-05T02:12:38;102540.34;;;2.02;83.98
72857;BME280;62742;52.136;4.500;2023-04-05T02:15:04;102539.00;;;2.11;83.16
72857;BME280;62742;52.136;4.500;2023-04-05T02:17:31;102533.53;;;2.04;83.17
72857;BME280;62742;52.136;4.500;2023-04-05T02:19:59;102532.50;;;2.01;82.15
72857;BME280;62742;52.136;4.500;2023-04-05T02:22:29;102528.31;;;2.22;81.60
72857;BME280;62742;52.136;4.500;2023-04-05T02:24:55;102530.59;;;1.97;82.52
72857;BME280;62742;52.136;4.500;2023-04-05T02:27:21;102531.09;;;1.90;82.14
72857;BME280;62742;52.136;4.500;2023-04-05T02:29:47;102532.44;;;1.81;83.57
72857;BME280;62742;52.136;4.500;2023-04-05T02:32:13;102530.13;;;1.87;83.69
72857;BME280;62742;52.136;4.500;2023-04-05T02:34:40;102526.28;;;1.79;84.17
72857;BME280;62742;52.136;4.500;2023-04-05T02:37:06;102534.81;;;1.77;84.72
72857;BME280;62742;52.136;4.500;2023-04-05T02:39:32;102531.56;;;1.63;85.15
72857;BME280;62742;52.136;4.500;2023-04-05T02:41:59;102536.59;;;1.78;84.88
72857;BME280;62742;52.136;4.500;2023-04-05T02:44:25;102527.47;;;1.86;83.97
72857;BME280;62742;52.136;4.500;2023-04-05T02:46:51;102520.06;;;1.76;84.11
72857;BME280;62742;52.136;4.500;2023-04-05T02:49:17;102520.06;;;1.76;84.67
72857;BME280;62742;52.136;4.500;2023-04-05T02:51:44;102525.72;;;1.85;82.78
72857;BME280;62742;52.136;4.500;2023-04-05T02:54:10;102530.88;;;1.67;84.95
72857;BME280;62742;52.136;4.500;2023-04-05T02:56:36;102522.84;;;1.61;85.56
72857;BME280;62742;52.136;4.500;2023-04-05T02:59:02;102517.72;;;1.62;84.97
72857;BME280;62742;52.136;4.500;2023-04-05T03:01:29;102517.56;;;1.59;85.86
72857;BME280;62742;52.136;4.500;2023-04-05T03:03:57;102513.28;;;1.60;85.38
72857;BME280;62742;52.136;4.500;2023-04-05T03:06:23;102515.19;;;1.46;86.23
72857;BME280;62742;52.136;4.500;2023-04-05T03:08:49;102512.69;;;1.47;86.87
72857;BME280;62742;52.136;4.500;2023-04-05T03:11:15;102513.03;;;1.37;86.56
72857;BME280;62742;52.136;4.500;2023-04-05T03:13:42;102513.13;;;1.39;85.31
72857;BME280;62742;52.136;4.500;2023-04-05T03:16:08;102510.22;;;1.33;86.67
72857;BME280;62742;52.136;4.500;2023-04-05T03:18:34;102516.94;;;1.29;87.73
72857;BME280;62742;52.136;4.500;2023-04-05T03:21:01;102516.06;;;1.28;88.13
72857;BME280;62742;52.136;4.500;2023-04-05T03:23:29;102515.69;;;1.21;88.76
72857;BME280;62742;52.136;4.500;2023-04-05T03:28:25;102510.25;;;1.16;89.04
72857;BME280;62742;52.136;4.500;2023-04-05T03:30:52;102515.31;;;1.13;89.54
72857;BME280;62742;52.136;4.500;2023-04-05T03:33:19;102518.69;;;1.12;89.60
72857;BME280;62742;52.136;4.500;2023-04-05T03:35:45;102509.97;;;1.10;89.40
72857;BME280;62742;52.136;4.500;2023-04-05T03:38:12;102502.84;;;1.06;88.83
72857;BME280;62742;52.136;4.500;2023-04-05T03:40:38;102505.66;;;0.92;88.73
72857;BME280;62742;52.136;4.500;2023-04-05T03:43:04;102498.19;;;0.99;89.86
72857;BME280;62742;52.136;4.500;2023-04-05T03:45:33;102497.06;;;0.93;90.19
72857;BME280;62742;52.136;4.500;2023-04-05T03:47:59;102488.59;;;0.96;90.08
72857;BME280;62742;52.136;4.500;2023-04-05T03:50:26;102492.22;;;1.00;90.39
72857;BME280;62742;52.136;4.500;2023-04-05T03:52:52;102502.47;;;0.98;90.57
72857;BME280;62742;52.136;4.500;2023-04-05T03:55:21;102495.44;;;0.96;90.65
72857;BME280;62742;52.136;4.500;2023-04-05T03:57:48;102492.22;;;1.00;90.70
72857;BME280;62742;52.136;4.500;2023-04-05T04:00:14;102496.00;;;1.24;88.78
72857;BME280;62742;52.136;4.500;2023-04-05T04:02:42;102496.31;;;1.30;86.00
72857;BME280;62742;52.136;4.500;2023-04-05T04:05:10;102494.31;;;1.43;84.71
72857;BME280;62742;52.136;4.500;2023-04-05T04:07:37;102486.59;;;1.26;85.66
72857;BME280;62742;52.136;4.500;2023-04-05T04:10:03;102489.69;;;1.01;87.22
72857;BME280;62742;52.136;4.500;2023-04-05T04:12:30;102486.84;;;1.13;87.52
72857;BME280;62742;52.136;4.500;2023-04-05T04:14:56;102481.88;;;1.18;85.65
72857;BME280;62742;52.136;4.500;2023-04-05T04:17:26;102483.75;;;1.56;85.30
72857;BME280;62742;52.136;4.500;2023-04-05T04:19:55;102489.97;;;1.42;84.74
72857;BME280;62742;52.136;4.500;2023-04-05T04:22:22;102492.97;;;1.15;86.29
72857;BME280;62742;52.136;4.500;2023-04-05T04:24:51;102489.09;;;1.07;87.44
72857;BME280;62742;52.136;4.500;2023-04-05T04:27:18;102486.91;;;1.15;86.27
72857;BME280;62742;52.136;4.500;2023-04-05T04:29:46;102486.72;;;0.93;87.33
72857;BME280;62742;52.136;4.500;2023-04-05T04:32:15;102488.19;;;0.88;88.48
72857;BME280;62742;52.136;4.500;2023-04-05T04:34:47;102487.13;;;0.85;88.89
72857;BME280;62742;52.136;4.500;2023-04-05T04:37:15;102480.59;;;0.75;89.04
72857;BME280;62742;52.136;4.500;2023-04-05T04:39:47;102487.22;;;0.70;89.64
72857;BME280;62742;52.136;4.500;2023-04-05T04:42:20;102480.31;;;0.69;89.81
72857;BME280;62742;52.136;4.500;2023-04-05T04:44:47;102487.81;;;0.64;90.47
72857;BME280;62742;52.136;4.500;2023-04-05T04:47:13;102487.22;;;0.70;89.16
72857;BME280;62742;52.136;4.500;2023-04-05T04:49:42;102485.16;;;0.63;89.98
72857;BME280;62742;52.136;4.500;2023-04-05T04:52:08;102487.34;;;0.55;90.68
72857;BME280;62742;52.136;4.500;2023-04-05T04:54:34;102480.56;;;0.57;90.69
72857;BME280;62742;52.136;4.500;2023-04-05T04:57:01;102485.56;;;0.54;90.61
72857;BME280;62742;52.136;4.500;2023-04-05T04:59:28;102480.31;;;0.52;90.71
72857;BME280;62742;52.136;4.500;2023-04-05T05:01:54;102478.59;;;0.53;90.93
72857;BME280;62742;52.136;4.500;2023-04-05T05:04:20;102484.50;;;0.50;91.07
72857;BME280;62742;52.136;4.500;2023-04-05T05:06:49;102480.06;;;0.48;90.86
72857;BME280;62742;52.136;4.500;2023-04-05T05:09:17;102486.31;;;0.51;90.88
72857;BME280;62742;52.136;4.500;2023-04-05T05:11:43;102482.72;;;0.49;90.26
72857;BME280;62742;52.136;4.500;2023-04-05T05:14:09;102483.38;;;0.45;90.22
72857;BME280;62742;52.136;4.500;2023-04-05T05:16:36;102487.00;;;0.49;90.71
72857;BME280;62742;52.136;4.500;2023-04-05T05:19:02;102491.31;;;0.48;90.84
72857;BME280;62742;52.136;4.500;2023-04-05T05:21:28;102493.97;;;0.50;90.51
72857;BME280;62742;52.136;4.500;2023-04-05T05:23:54;102491.31;;;0.48;89.98
72857;BME280;62742;52.136;4.500;2023-04-05T05:26:20;102497.19;;;0.46;89.73
72857;BME280;62742;52.136;4.500;2023-04-05T05:28:47;102498.97;;;0.47;89.23
72857;BME280;62742;52.136;4.500;2023-04-05T05:31:14;102499.94;;;0.49;89.82
72857;BME280;62742;52.136;4.500;2023-04-05T05:33:42;102496.56;;;0.50;90.36
72857;BME280;62742;52.136;4.500;2023-04-05T05:36:12;102504.78;;;0.59;91.25
72857;BME280;62742;52.136;4.500;2023-04-05T05:38:38;102505.84;;;0.63;91.40
72857;BME280;62742;52.136;4.500;2023-04-05T05:41:04;102507.03;;;0.69;91.50
72857;BME280;62742;52.136;4.500;2023-04-05T05:43:31;102505.00;;;0.80;91.08
72857;BME280;62742;52.136;4.500;2023-04-05T05:45:59;102510.06;;;0.95;90.53
72857;BME280;62742;52.136;4.500;2023-04-05T05:48:27;102506.44;;;1.08;89.97
72857;BME280;62742;52.136;4.500;2023-04-05T05:50:53;102506.78;;;1.16;89.35
72857;BME280;62742;52.136;4.500;2023-04-05T05:53:21;102500.97;;;1.20;88.56
72857;BME280;62742;52.136;4.500;2023-04-05T05:55:47;102506.44;;;1.26;88.11
72857;BME280;62742;52.136;4.500;2023-04-05T05:58:13;102507.78;;;1.36;87.80
72857;BME280;62742;52.136;4.500;2023-04-05T06:00:39;102504.75;;;1.44;87.61
72857;BME280;62742;52.136;4.500;2023-04-05T06:03:05;102507.06;;;1.56;87.01
72857;BME280;62742;52.136;4.500;2023-04-05T06:05:32;102496.63;;;1.73;86.94
72857;BME280;62742;52.136;4.500;2023-04-05T06:07:58;102495.91;;;1.95;86.25
72857;BME280;62742;52.136;4.500;2023-04-05T06:10:24;102497.78;;;2.17;84.72
72857;BME280;62742;52.136;4.500;2023-04-05T06:12:51;102490.97;;;2.38;82.05
72857;BME280;62742;52.136;4.500;2023-04-05T06:15:17;102493.03;;;2.46;80.56
72857;BME280;62742;52.136;4.500;2023-04-05T06:17:43;102495.34;;;2.78;81.94
72857;BME280;62742;52.136;4.500;2023-04-05T06:20:10;102488.59;;;3.24;79.95
72857;BME280;62742;52.136;4.500;2023-04-05T06:22:37;102478.69;;;3.58;77.77
72857;BME280;62742;52.136;4.500;2023-04-05T06:25:06;102481.88;;;3.73;77.08
72857;BME280;62742;52.136;4.500;2023-04-05T06:27:33;102479.75;;;3.85;75.14
72857;BME280;62742;52.136;4.500;2023-04-05T06:30:00;102477.19;;;4.09;71.70
72857;BME280;62742;52.136;4.500;2023-04-05T06:32:26;102477.88;;;4.28;68.65
72857;BME280;62742;52.136;4.500;2023-04-05T06:34:52;102486.19;;;4.42;69.37
72857;BME280;62742;52.136;4.500;2023-04-05T06:37:19;102483.75;;;4.71;70.02
72857;BME280;62742;52.136;4.500;2023-04-05T06:39:45;102483.72;;;4.95;68.77
72857;BME280;62742;52.136;4.500;2023-04-05T06:42:11;102487.50;;;5.30;66.78
72857;BME280;62742;52.136;4.500;2023-04-05T06:44:37;102470.81;;;5.79;67.11
72857;BME280;62742;52.136;4.500;2023-04-05T06:47:03;102466.69;;;6.16;66.05
72857;BME280;62742;52.136;4.500;2023-04-05T06:49:30;102476.78;;;6.65;66.96
72857;BME280;62742;52.136;4.500;2023-04-05T06:51:56;102472.63;;;7.06;64.36
72857;BME280;62742;52.136;4.500;2023-04-05T06:54:22;102466.41;;;7.36;64.19
72857;BME280;62742;52.136;4.500;2023-04-05T06:56:49;102471.91;;;7.48;61.25
72857;BME280;62742;52.136;4.500;2023-04-05T06:59:16;102464.38;;;8.02;62.06
72857;BME280;62742;52.136;4.500;2023-04-05T07:01:42;102466.78;;;8.34;60.29
72857;BME280;62742;52.136;4.500;2023-04-05T07:04:09;102466.50;;;8.21;57.39
72857;BME280;62742;52.136;4.500;2023-04-05T07:06:35;102467.69;;;8.36;59.87
72857;BME280;62742;52.136;4.500;2023-04-05T07:09:03;102467.34;;;8.61;56.95
72857;BME280;62742;52.136;4.500;2023-04-05T07:11:30;102467.22;;;9.04;59.17
72857;BME280;62742;52.136;4.500;2023-04-05T07:13:59;102463.84;;;9.11;56.58
72857;BME280;62742;52.136;4.500;2023-04-05T07:16:26;102455.34;;;9.26;55.05
72857;BME280;62742;52.136;4.500;2023-04-05T07:18:54;102453.84;;;9.42;55.17
72857;BME280;62742;52.136;4.500;2023-04-05T07:21:21;102460.19;;;9.57;54.52
72857;BME280;62742;52.136;4.500;2023-04-05T07:23:48;102459.94;;;9.40;54.77
72857;BME280;62742;52.136;4.500;2023-04-05T07:26:14;102460.59;;;9.86;56.24
72857;BME280;62742;52.136;4.500;2023-04-05T07:28:41;102459.94;;;10.04;54.82
72857;BME280;62742;52.136;4.500;2023-04-05T07:31:07;102461.00;;;10.17;55.81
72857;BME280;62742;52.136;4.500;2023-04-05T07:33:33;102453.44;;;10.43;52.43
72857;BME280;62742;52.136;4.500;2023-04-05T07:36:00;102452.13;;;10.83;52.77
72857;BME280;62742;52.136;4.500;2023-04-05T07:38:28;102447.75;;;10.87;50.98
72857;BME280;62742;52.136;4.500;2023-04-05T07:40:55;102444.09;;;10.70;53.90
72857;BME280;62742;52.136;4.500;2023-04-05T07:43:21;102442.78;;;11.19;51.83
72857;BME280;62742;52.136;4.500;2023-04-05T07:45:50;102447.81;;;10.90;52.86
72857;BME280;62742;52.136;4.500;2023-04-05T07:48:19;102449.09;;;11.48;50.39
72857;BME280;62742;52.136;4.500;2023-04-05T07:50:45;102439.19;;;11.11;50.05
72857;BME280;62742;52.136;4.500;2023-04-05T07:53:17;102434.00;;;11.17;51.15
72857;BME280;62742;52.136;4.500;2023-04-05T07:55:44;102434.13;;;11.36;49.97
72857;BME280;62742;52.136;4.500;2023-04-05T07:58:11;102429.88;;;11.55;48.58
72857;BME280;62742;52.136;4.500;2023-04-05T08:00:37;102423.59;;;11.34;49.93
72857;BME280;62742;52.136;4.500;2023-04-05T08:03:03;102434.16;;;11.40;49.84
72857;BME280;62742;52.136;4.500;2023-04-05T08:05:30;102429.84;;;11.50;49.41
72857;BME280;62742;52.136;4.500;2023-04-05T08:07:56;102429.88;;;11.58;48.49
72857;BME280;62742;52.136;4.500;2023-04-05T08:10:23;102427.28;;;11.64;47.80
72857;BME280;62742;52.136;4.500;2023-04-05T08:12:50;102427.50;;;12.06;48.62
72857;BME280;62742;52.136;4.500;2023-04-05T08:15:16;102429.34;;;12.24;49.16
72857;BME280;62742;52.136;4.500;2023-04-05T08:17:42;102424.91;;;12.16;47.03
72857;BME280;62742;52.136;4.500;2023-04-05T08:20:09;102425.75;;;12.11;49.21
72857;BME280;62742;52.136;4.500;2023-04-05T08:22:35;102415.31;;;12.42;47.74
72857;BME280;62742;52.136;4.500;2023-04-05T08:25:02;102421.53;;;12.61;44.64
72857;BME280;62742;52.136;4.500;2023-04-05T08:27:28;102419.75;;;12.87;44.92
72857;BME280;62742;52.136;4.500;2023-04-05T08:29:54;102415.38;;;12.94;46.17
72857;BME280;62742;52.136;4.500;2023-04-05T08:32:20;102425.91;;;12.76;44.03
72857;BME280;62742;52.136;4.500;2023-04-05T08:34:47;102415.34;;;12.56;44.02
72857;BME280;62742;52.136;4.500;2023-04-05T08:37:13;102407.44;;;12.93;43.14
72857;BME280;62742;52.136;4.500;2023-04-05T08:39:39;102414.47;;;13.00;43.93
72857;BME280;62742;52.136;4.500;2023-04-05T08:42:15;102419.78;;;13.09;41.84
72857;BME280;62742;52.136;4.500;2023-04-05T08:44:43;102414.50;;;13.07;43.07
72857;BME280;62742;52.136;4.500;2023-04-05T08:47:11;102410.97;;;12.67;40.79
72857;BME280;62742;52.136;4.500;2023-04-05T08:49:43;102416.22;;;12.54;42.42
72857;BME280;62742;52.136;4.500;2023-04-05T08:52:10;102411.88;;;12.80;44.04
72857;BME280;62742;52.136;4.500;2023-04-05T08:54:37;102405.72;;;12.91;43.06
72857;BME280;62742;52.136;4.500;2023-04-05T08:57:03;102411.84;;;12.90;42.27
72857;BME280;62742;52.136;4.500;2023-04-05T08:59:32;102407.44;;;12.89;39.35
72857;BME280;62742;52.136;4.500;2023-04-05T09:02:01;102412.72;;;13.29;40.88
72857;BME280;62742;52.136;4.500;2023-04-05T09:04:33;102409.22;;;13.03;41.99
72857;BME280;62742;52.136;4.500;2023-04-05T09:07:09;102410.91;;;13.69;40.20
72857;BME280;62742;52.136;4.500;2023-04-05T09:09:38;102406.41;;;13.86;39.00
72857;BME280;62742;52.136;4.500;2023-04-05T09:12:09;102404.56;;;14.05;38.93
72857;BME280;62742;52.136;4.500;2023-04-05T09:14:36;102407.13;;;14.28;37.01
72857;BME280;62742;52.136;4.500;2023-04-05T09:17:03;102405.22;;;14.46;37.09
72857;BME280;62742;52.136;4.500;2023-04-05T09:19:31;102403.53;;;14.35;37.23
72857;BME280;62742;52.136;4.500;2023-04-05T09:24:29;102399.03;;;14.50;37.94
72857;BME280;62742;52.136;4.500;2023-04-05T09:27:05;102399.00;;;14.53;38.04
72857;BME280;62742;52.136;4.500;2023-04-05T09:29:39;102392.66;;;14.80;37.05
72857;BME280;62742;52.136;4.500;2023-04-05T09:32:08;102389.75;;;15.08;36.65
72857;BME280;62742;52.136;4.500;2023-04-05T09:34:36;102392.81;;;14.57;33.94
72857;BME280;62742;52.136;4.500;2023-04-05T09:37:12;102396.88;;;13.42;35.33
72857;BME280;62742;52.136;4.500;2023-04-05T09:39:42;102385.31;;;13.78;33.23
72857;BME280;62742;52.136;4.500;2023-04-05T09:42:13;102399.13;;;14.31;34.35
72857;BME280;62742;52.136;4.500;2023-04-05T09:47:23;102386.84;;;14.26;34.21
72857;BME280;62742;52.136;4.500;2023-04-05T09:49:52;102379.50;;;14.72;34.71
72857;BME280;62742;52.136;4.500;2023-04-05T09:54:57;102382.41;;;15.39;34.10
72857;BME280;62742;52.136;4.500;2023-04-05T09:57:25;102387.88;;;15.21;36.32
72857;BME280;62742;52.136;4.500;2023-04-05T09:59:52;102375.53;;;15.20;33.04
72857;BME280;62742;52.136;4.500;2023-04-05T10:02:22;102381.28;;;15.59;31.86
72857;BME280;62742;52.136;4.500;2023-04-05T10:04:49;102369.19;;;15.36;32.25
72857;BME280;62742;52.136;4.500;2023-04-05T10:07:17;102368.13;;;14.61;33.67
72857;BME280;62742;52.136;4.500;2023-04-05T10:09:45;102359.63;;;15.20;31.99
72857;BME280;62742;52.136;4.500;2023-04-05T10:12:15;102367.47;;;14.24;32.11
72857;BME280;62742;52.136;4.500;2023-04-05T10:14:50;102366.34;;;14.63;33.54
72857;BME280;62742;52.136;4.500;2023-04-05T10:17:22;102359.31;;;14.56;33.30
72857;BME280;62742;52.136;4.500;2023-04-05T10:20:09;102363.38;;;15.00;34.10
72857;BME280;62742;52.136;4.500;2023-04-05T10:28:02;102362.41;;;15.09;34.92
72857;BME280;62742;52.136;4.500;2023-04-05T10:30:34;102357.13;;;15.07;35.16
72857;BME280;62742;52.136;4.500;2023-04-05T10:41:12;102349.22;;;15.03;30.67
72857;BME280;62742;52.136;4.500;2023-04-05T10:43:41;102344.38;;;15.45;33.38
72857;BME280;62742;52.136;4.500;2023-04-05T10:46:10;102342.13;;;15.85;33.52
72857;BME280;62742;52.136;4.500;2023-04-05T10:48:56;102349.16;;;15.86;33.05
72857;BME280;62742;52.136;4.500;2023-04-05T10:51:28;102342.38;;;15.64;31.20
72857;BME280;62742;52.136;4.500;2023-04-05T10:53:56;102340.75;;;15.50;32.58
72857;BME280;62742;52.136;4.500;2023-04-05T10:56:23;102337.34;;;15.41;31.32
72857;BME280;62742;52.136;4.500;2023-04-05T10:58:50;102330.28;;;15.41;31.51
72857;BME280;62742;52.136;4.500;2023-04-05T11:01:18;102335.97;;;15.04;30.17
72857;BME280;62742;52.136;4.500;2023-04-05T11:06:19;102324.19;;;16.03;31.42
72857;BME280;62742;52.136;4.500;2023-04-05T11:08:47;102322.38;;;16.06;33.90
72857;BME280;62742;52.136;4.500;2023-04-05T11:11:15;102321.09;;;16.32;30.95
72857;BME280;62742;52.136;4.500;2023-04-05T11:13:50;102325.81;;;16.13;30.28
72857;BME280;62742;52.136;4.500;2023-04-05T11:16:18;102321.66;;;15.95;32.87
72857;BME280;62742;52.136;4.500;2023-04-05T11:18:46;102317.31;;;15.89;30.95
72857;BME280;62742;52.136;4.500;2023-04-05T11:21:23;102314.22;;;16.19;29.64
72857;BME280;62742;52.136;4.500;2023-04-05T11:24:00;102314.81;;;15.80;31.04
72857;BME280;62742;52.136;4.500;2023-04-05T11:26:32;102312.53;;;16.15;31.09
72857;BME280;62742;52.136;4.500;2023-04-05T11:28:59;102315.03;;;16.25;31.29
72857;BME280;62742;52.136;4.500;2023-04-05T11:31:25;102309.94;;;16.66;32.72
72857;BME280;62742;52.136;4.500;2023-04-05T11:33:55;102306.81;;;16.41;30.40
72857;BME280;62742;52.136;4.500;2023-04-05T11:41:46;102298.56;;;16.02;32.06
72857;BME280;62742;52.136;4.500;2023-04-05T11:44:19;102306.25;;;15.55;32.63
72857;BME280;62742;52.136;4.500;2023-04-05T11:46:51;102299.81;;;15.73;32.05
72857;BME280;62742;52.136;4.500;2023-04-05T11:49:21;102283.91;;;16.37;30.69
72857;BME280;62742;52.136;4.500;2023-04-05T11:51:52;102281.59;;;16.14;34.13
72857;BME280;62742;52.136;4.500;2023-04-05T11:54:31;102282.94;;;16.41;30.72
72857;BME280;62742;52.136;4.500;2023-04-05T11:56:58;102286.56;;;16.37;32.64
72857;BME280;62742;52.136;4.500;2023-04-05T11:59:31;102274.88;;;16.47;31.53
72857;BME280;62742;52.136;4.500;2023-04-05T12:01:59;102273.81;;;16.57;35.20
72857;BME280;62742;52.136;4.500;2023-04-05T12:04:27;102274.06;;;16.95;32.21
72857;BME280;62742;52.136;4.500;2023-04-05T12:07:09;102263.06;;;17.55;32.65
72857;BME280;62742;52.136;4.500;2023-04-05T12:09:35;102266.94;;;16.95;33.32
72857;BME280;62742;52.136;4.500;2023-04-05T12:12:20;102260.88;;;16.37;32.12
72857;BME280;62742;52.136;4.500;2023-04-05T12:14:46;102261.50;;;16.53;30.46
72857;BME280;62742;52.136;4.500;2023-04-05T12:17:12;102266.13;;;16.42;30.83
72857;BME280;62742;52.136;4.500;2023-04-05T12:19:38;102262.00;;;16.22;30.31
72857;BME280;62742;52.136;4.500;2023-04-05T12:22:05;102254.63;;;15.88;30.89
72857;BME280;62742;52.136;4.500;2023-04-05T12:24:31;102253.47;;;16.05;33.03
72857;BME280;62742;52.136;4.500;2023-04-05T12:26:58;102257.72;;;15.55;30.88
72857;BME280;62742;52.136;4.500;2023-04-05T12:29:25;102251.81;;;14.46;33.22
72857;BME280;62742;52.136;4.500;2023-04-05T12:31:51;102243.03;;;15.29;36.59
72857;BME280;62742;52.136;4.500;2023-04-05T12:34:22;102236.94;;;16.42;34.90
72857;BME280;62742;52.136;4.500;2023-04-05T12:36:52;102235.91;;;15.96;33.00
72857;BME280;62742;52.136;4.500;2023-04-05T12:39:20;102243.34;;;16.30;34.77
72857;BME280;62742;52.136;4.500;2023-04-05T12:41:55;102242.88;;;16.03;33.45
72857;BME280;62742;52.136;4.500;2023-04-05T12:44:29;102235.97;;;15.92;34.38
72857;BME280;62742;52.136;4.500;2023-04-05T12:46:59;102244.44;;;16.67;31.32
72857;BME280;62742;52.136;4.500;2023-04-05T12:49:27;102236.72;;;17.02;30.97
72857;BME280;62742;52.136;4.500;2023-04-05T12:51:55;102230.44;;;17.07;31.79
72857;BME280;62742;52.136;4.500;2023-04-05T12:54:27;102222.44;;;17.08;34.54
72857;BME280;62742;52.136;4.500;2023-04-05T12:56:54;102223.75;;;17.31;32.08
72857;BME280;62742;52.136;4.500;2023-04-05T12:59:21;102218.41;;;17.71;28.99
72857;BME280;62742;52.136;4.500;2023-04-05T13:01:48;102212.38;;;18.02;29.72
72857;BME280;62742;52.136;4.500;2023-04-05T13:04:14;102221.16;;;17.67;32.64
72857;BME280;62742;52.136;4.500;2023-04-05T13:06:41;102216.34;;;17.44;35.71
72857;BME280;62742;52.136;4.500;2023-04-05T13:09:07;102218.13;;;17.02;34.82
72857;BME280;62742;52.136;4.500;2023-04-05T13:11:33;102220.25;;;16.82;37.23
72857;BME280;62742;52.136;4.500;2023-04-05T13:13:59;102216.09;;;17.15;38.00
72857;BME280;62742;52.136;4.500;2023-04-05T13:16:26;102204.34;;;17.66;38.33
72857;BME280;62742;52.136;4.500;2023-04-05T13:18:52;102208.31;;;17.47;29.20
72857;BME280;62742;52.136;4.500;2023-04-05T13:21:18;102207.47;;;17.46;35.30
72857;BME280;62742;52.136;4.500;2023-04-05T13:23:45;102204.97;;;16.98;33.17
72857;BME280;62742;52.136;4.500;2023-04-05T13:26:11;102195.19;;;17.41;29.08
72857;BME280;62742;52.136;4.500;2023-04-05T13:28:37;102186.72;;;17.62;30.77
72857;BME280;62742;52.136;4.500;2023-04-05T13:31:04;102196.16;;;17.36;33.28
72857;BME280;62742;52.136;4.500;2023-04-05T13:33:31;102187.28;;;16.95;33.10
72857;BME280;62742;52.136;4.500;2023-04-05T13:35:58;102186.59;;;16.37;34.52
72857;BME280;62742;52.136;4.500;2023-04-05T13:38:24;102192.69;;;15.91;37.29
72857;BME280;62742;52.136;4.500;2023-04-05T13:40:50;102181.88;;;16.03;37.54
72857;BME280;62742;52.136;4.500;2023-04-05T13:43:16;102174.63;;;16.15;37.17
72857;BME280;62742;52.136;4.500;2023-04-05T13:45:43;102169.78;;;15.88;35.96